createdAt,value
2022-12-04T00:01:12.690Z,22.20
2022-12-04T00:03:39.998Z,22.63
2022-12-04T00:06:12.776Z,22.25
2022-12-04T00:08:40.533Z,22.75
2022-12-04T00:11:08.682Z,21.38
2022-12-04T00:13:35.908Z,21.77
2022-12-04T00:16:06.361Z,20.50
2022-12-04T00:18:33.205Z,19.63
2022-12-04T00:20:59.846Z,20.38
2022-12-04T00:23:26.435Z,20.23
2022-12-04T00:25:53.393Z,19.33
2022-12-04T00:28:20.023Z,19.17
2022-12-04T00:30:47.260Z,20.45
2022-12-04T00:33:14.160Z,20.05
2022-12-04T00:35:41.069Z,20.42
2022-12-04T00:38:07.996Z,20.35
2022-12-04T00:40:34.659Z,20.90
2022-12-04T00:43:01.290Z,21.48
2022-12-04T00:45:28.135Z,21.50
2022-12-04T00:47:54.914Z,20.75
2022-12-04T00:50:22.181Z,21.80
2022-12-04T00:52:48.781Z,20.83
2022-12-04T00:55:15.507Z,23.55
2022-12-04T00:57:42.112Z,23.08
2022-12-04T01:00:09.084Z,22.70
2022-12-04T01:02:35.695Z,23.00
2022-12-04T01:05:02.401Z,23.13
2022-12-04T01:07:29.128Z,23.88
2022-12-04T01:09:56.011Z,23.63
2022-12-04T01:12:22.839Z,25.05
2022-12-04T01:14:49.376Z,24.30
2022-12-04T01:17:15.962Z,23.37
2022-12-04T01:19:42.575Z,24.65
2022-12-04T01:22:09.185Z,24.67
2022-12-04T01:24:35.798Z,23.42
2022-12-04T01:27:02.334Z,24.13
2022-12-04T01:29:28.944Z,23.10
2022-12-04T01:31:55.672Z,24.13
2022-12-04T01:34:22.323Z,23.38
2022-12-04T01:36:48.881Z,23.98
2022-12-04T01:39:15.448Z,23.73
2022-12-04T01:41:42.111Z,23.03
2022-12-04T01:44:18.683Z,23.58
2022-12-04T01:46:58.780Z,22.08
2022-12-04T01:49:34.713Z,22.73
2022-12-04T01:52:07.189Z,22.73
2022-12-04T01:54:41.986Z,23.80
2022-12-04T01:57:17.832Z,23.52
2022-12-04T01:59:54.830Z,21.95
2022-12-04T02:02:27.242Z,23.15
2022-12-04T02:04:54.534Z,21.75
2022-12-04T02:07:21.102Z,23.37
2022-12-04T02:09:53.969Z,23.45
2022-12-04T02:12:39.034Z,22.17
2022-12-04T02:15:17.482Z,21.83
2022-12-04T02:18:02.193Z,22.65
2022-12-04T02:20:52.876Z,20.97
2022-12-04T02:23:23.189Z,20.88
2022-12-04T02:26:15.754Z,23.38
2022-12-04T02:28:51.462Z,22.90
2022-12-04T02:31:22.965Z,22.55
2022-12-04T02:34:09.075Z,23.10
2022-12-04T02:36:44.911Z,22.35
2022-12-04T02:39:34.457Z,22.73
2022-12-04T02:42:15.775Z,22.15
2022-12-04T02:44:49.318Z,24.10
2022-12-04T02:47:20.228Z,22.83
2022-12-04T02:49:58.754Z,21.60
2022-12-04T02:52:48.561Z,22.90
2022-12-04T02:55:24.007Z,22.80
2022-12-04T02:57:56.137Z,22.67
2022-12-04T03:00:22.906Z,22.37
2022-12-04T03:03:02.781Z,23.75
2022-12-04T03:05:59.350Z,23.58
2022-12-04T03:08:42.358Z,21.83
2022-12-04T03:11:09.170Z,22.10
2022-12-04T03:13:59.095Z,21.83
2022-12-04T03:16:32.634Z,21.98
2022-12-04T03:19:03.761Z,22.40
2022-12-04T03:21:35.073Z,23.27
2022-12-04T03:24:11.789Z,22.80
2022-12-04T03:26:43.999Z,21.83
2022-12-04T03:29:28.425Z,21.92
2022-12-04T03:32:03.442Z,22.40
2022-12-04T03:34:43.186Z,22.17
2022-12-04T03:37:19.626Z,22.08
2022-12-04T03:39:58.345Z,21.57
2022-12-04T03:42:37.928Z,21.60
2022-12-04T03:45:12.423Z,22.05
2022-12-04T03:48:01.840Z,21.25
2022-12-04T03:50:37.270Z,21.75
2022-12-04T03:53:30.771Z,21.93
2022-12-04T03:56:11.698Z,22.08
2022-12-04T03:58:43.513Z,20.70
2022-12-04T04:01:13.222Z,22.23
2022-12-04T04:03:45.673Z,19.60
2022-12-04T04:06:24.159Z,18.73
2022-12-04T04:08:55.756Z,22.00
2022-12-04T04:11:40.170Z,22.92
2022-12-04T04:14:37.878Z,20.02
2022-12-04T04:17:27.552Z,20.55
2022-12-04T04:20:21.629Z,19.73
2022-12-04T04:23:09.387Z,20.73
2022-12-04T04:25:40.506Z,17.98
2022-12-04T04:28:33.166Z,20.20
2022-12-04T04:31:13.678Z,21.98
2022-12-04T04:33:50.036Z,19.17
2022-12-04T04:36:30.525Z,19.48
2022-12-04T04:39:04.321Z,18.73
2022-12-04T04:41:45.364Z,20.15
2022-12-04T04:44:15.507Z,19.40
2022-12-04T04:46:47.272Z,19.10
2022-12-04T04:49:15.005Z,19.95
2022-12-04T04:51:43.097Z,21.35
2022-12-04T04:54:13.449Z,19.80
2022-12-04T04:56:42.279Z,20.40
2022-12-04T04:59:08.891Z,20.37
2022-12-04T05:01:36.058Z,20.27
2022-12-04T05:04:04.988Z,20.90
2022-12-04T05:06:32.234Z,20.23
2022-12-04T05:08:58.800Z,20.77
2022-12-04T05:11:25.501Z,19.57
2022-12-04T05:13:52.772Z,19.27
2022-12-04T05:16:19.495Z,19.42
2022-12-04T05:19:06.082Z,19.83
2022-12-04T05:21:34.257Z,20.13
2022-12-04T05:24:01.246Z,18.47
2022-12-04T05:26:27.847Z,18.10
2022-12-04T05:28:54.607Z,18.30
2022-12-04T05:31:21.200Z,18.25
2022-12-04T05:33:47.809Z,17.38
2022-12-04T05:36:14.430Z,16.17
2022-12-04T05:38:41.181Z,17.73
2022-12-04T05:41:08.094Z,17.77
2022-12-04T05:43:37.723Z,16.50
2022-12-04T05:46:06.818Z,17.33
2022-12-04T05:48:35.627Z,17.10
2022-12-04T05:51:10.353Z,15.45
2022-12-04T05:53:37.685Z,16.48
2022-12-04T05:56:06.468Z,16.08
2022-12-04T05:58:37.122Z,15.48
2022-12-04T06:01:17.198Z,15.90
2022-12-04T06:03:44.507Z,15.48
2022-12-04T06:06:17.614Z,14.55
2022-12-04T06:08:48.372Z,15.55
2022-12-04T06:11:18.413Z,15.52
2022-12-04T06:13:45.855Z,15.03
2022-12-04T06:16:17.244Z,15.32
2022-12-04T06:18:44.206Z,15.35
2022-12-04T06:21:11.241Z,14.90
2022-12-04T06:23:37.872Z,14.27
2022-12-04T06:26:07.379Z,14.30
2022-12-04T06:28:35.454Z,14.25
2022-12-04T06:31:04.133Z,15.00
2022-12-04T06:33:30.971Z,13.65
2022-12-04T06:36:01.857Z,14.45
2022-12-04T06:38:29.459Z,15.00
2022-12-04T06:40:56.602Z,15.02
2022-12-04T06:43:23.734Z,14.98
2022-12-04T06:46:10.491Z,16.23
2022-12-04T06:48:37.544Z,14.32
2022-12-04T06:51:06.112Z,14.63
2022-12-04T06:53:33.225Z,13.32
2022-12-04T06:56:02.464Z,14.52
2022-12-04T06:58:29.712Z,13.88
2022-12-04T07:00:56.858Z,13.90
2022-12-04T07:03:24.316Z,12.93
2022-12-04T07:05:51.688Z,13.60
2022-12-04T07:08:18.697Z,13.45
2022-12-04T07:10:45.400Z,13.63
2022-12-04T07:13:11.984Z,13.82
2022-12-04T07:15:38.627Z,14.10
2022-12-04T07:18:05.712Z,13.57
2022-12-04T07:20:32.536Z,13.95
2022-12-04T07:23:03.992Z,14.70
2022-12-04T07:25:33.795Z,13.07
2022-12-04T07:28:00.376Z,13.03
2022-12-04T07:30:26.997Z,13.20
2022-12-04T07:32:53.606Z,13.35
2022-12-04T07:35:20.227Z,12.73
2022-12-04T07:37:46.795Z,13.65
2022-12-04T07:40:13.843Z,12.73
2022-12-04T07:42:41.086Z,11.55
2022-12-04T07:45:08.682Z,11.80
2022-12-04T07:47:36.587Z,12.73
2022-12-04T07:50:04.827Z,12.57
2022-12-04T07:52:31.549Z,12.20
2022-12-04T07:54:58.107Z,12.85
2022-12-04T07:57:24.654Z,12.32
2022-12-04T07:59:51.237Z,12.65
2022-12-04T08:02:17.794Z,13.48
2022-12-04T08:04:44.981Z,12.50
2022-12-04T08:07:11.763Z,12.30
2022-12-04T08:09:38.524Z,12.73
2022-12-04T08:12:05.326Z,12.85
2022-12-04T08:14:31.933Z,12.85
2022-12-04T08:16:58.592Z,10.80
2022-12-04T08:19:25.539Z,11.82
2022-12-04T08:21:54.263Z,12.38
2022-12-04T08:24:20.916Z,11.68
2022-12-04T08:26:47.491Z,12.18
2022-12-04T08:29:14.139Z,11.53
2022-12-04T08:31:40.922Z,12.25
2022-12-04T08:34:07.980Z,11.82
2022-12-04T08:36:35.218Z,11.55
2022-12-04T08:39:01.899Z,11.13
2022-12-04T08:41:28.606Z,11.53
2022-12-04T08:43:55.977Z,11.85
2022-12-04T08:46:24.978Z,11.93
2022-12-04T08:48:51.865Z,11.80
2022-12-04T08:51:29.757Z,11.07
2022-12-04T08:53:59.046Z,11.57
2022-12-04T08:56:27.441Z,11.95
2022-12-04T08:58:56.183Z,11.68
2022-12-04T09:01:23.332Z,11.68
2022-12-04T09:03:50.448Z,10.90
2022-12-04T09:06:18.565Z,10.90
2022-12-04T09:08:46.002Z,10.82
2022-12-04T09:11:15.916Z,10.90
2022-12-04T09:13:43.958Z,11.25
2022-12-04T09:16:15.010Z,10.00
2022-12-04T09:18:43.236Z,10.00
2022-12-04T09:23:02.400Z,10.75
2022-12-04T09:25:45.632Z,11.43
2022-12-04T09:28:31.877Z,10.93
2022-12-04T09:31:18.730Z,11.30
2022-12-04T09:34:04.942Z,11.07
2022-12-04T09:36:50.876Z,9.52
2022-12-04T09:41:58.245Z,10.13
2022-12-04T09:44:48.016Z,9.88
2022-12-04T09:47:37.186Z,9.93
2022-12-04T09:50:26.404Z,9.30
2022-12-04T09:53:17.392Z,9.40
2022-12-04T09:56:06.492Z,9.48
2022-12-04T09:58:58.412Z,9.52
2022-12-04T10:01:48.720Z,9.98
2022-12-04T10:04:34.964Z,9.55
2022-12-04T10:07:26.583Z,9.95
2022-12-04T10:10:24.627Z,9.60
2022-12-04T10:13:26.363Z,8.93
2022-12-04T10:16:24.696Z,10.30
2022-12-04T10:19:19.204Z,9.77
2022-12-04T10:22:13.786Z,8.48
2022-12-04T10:25:03.222Z,10.57
2022-12-04T10:27:54.848Z,9.48
2022-12-04T10:30:42.990Z,9.23
2022-12-04T10:33:37.316Z,10.48
2022-12-04T10:36:29.633Z,9.73
2022-12-04T10:39:22.127Z,8.70
2022-12-04T10:42:16.945Z,8.55
2022-12-04T10:45:02.300Z,8.93
2022-12-04T10:47:49.751Z,8.75
2022-12-04T10:50:36.670Z,9.05
2022-12-04T10:53:29.643Z,8.60
2022-12-04T10:56:18.969Z,9.52
2022-12-04T10:59:05.799Z,8.98
2022-12-04T11:01:52.951Z,9.10
2022-12-04T11:04:40.310Z,9.70
2022-12-04T11:07:28.523Z,10.83
2022-12-04T11:10:21.343Z,11.57
2022-12-04T11:13:15.378Z,12.38
2022-12-04T11:16:00.860Z,12.82
2022-12-04T11:18:48.935Z,13.23
2022-12-04T11:21:34.618Z,14.88
2022-12-04T11:24:24.879Z,12.90
2022-12-04T11:27:20.321Z,14.20
2022-12-04T11:30:09.976Z,13.13
2022-12-04T11:32:56.810Z,12.77
2022-12-04T11:35:43.356Z,12.47
2022-12-04T11:38:32.390Z,11.68
2022-12-04T11:41:28.720Z,11.40
2022-12-04T11:44:26.484Z,11.73
2022-12-04T11:47:18.587Z,11.77
2022-12-04T11:50:13.609Z,12.35
2022-12-04T11:53:07.857Z,11.18
2022-12-04T11:56:14.311Z,10.52
2022-12-04T11:59:30.781Z,9.93
2022-12-04T12:02:34.249Z,9.50
2022-12-04T12:05:36.978Z,9.97
2022-12-04T12:08:30.545Z,10.00
2022-12-04T12:11:23.566Z,10.38
2022-12-04T12:14:19.508Z,9.90
2022-12-04T12:17:15.507Z,10.50
2022-12-04T12:20:11.488Z,11.05
2022-12-04T12:23:21.573Z,11.23
2022-12-04T12:26:11.647Z,10.38
2022-12-04T12:29:16.584Z,10.65
2022-12-04T12:32:21.186Z,10.63
2022-12-04T12:35:19.496Z,10.20
2022-12-04T12:38:10.435Z,10.15
2022-12-04T12:41:01.126Z,11.18
2022-12-04T12:43:54.276Z,10.95
2022-12-04T12:46:49.410Z,10.48
2022-12-04T12:49:41.704Z,12.35
2022-12-04T12:52:34.461Z,11.00
2022-12-04T12:55:24.523Z,12.63
2022-12-04T12:58:18.272Z,9.88
2022-12-04T13:01:12.315Z,11.80
2022-12-04T13:04:06.515Z,10.60
2022-12-04T13:06:58.535Z,10.68
2022-12-04T13:09:49.035Z,10.68
2022-12-04T13:12:44.177Z,11.27
2022-12-04T13:15:39.038Z,10.48
2022-12-04T13:18:28.682Z,10.70
2022-12-04T13:21:29.796Z,11.10
2022-12-04T13:25:00.298Z,11.50
2022-12-04T13:27:59.170Z,11.50
2022-12-04T13:30:50.656Z,11.68
2022-12-04T13:33:54.737Z,10.50
2022-12-04T13:36:54.881Z,11.03
2022-12-04T13:40:13.676Z,10.52
2022-12-04T13:43:31.952Z,11.95
2022-12-04T13:46:30.240Z,11.52
2022-12-04T13:49:44.065Z,12.25
2022-12-04T13:52:40.201Z,13.03
2022-12-04T13:55:29.164Z,14.27
2022-12-04T13:58:27.774Z,15.20
2022-12-04T14:01:25.298Z,14.68
2022-12-04T14:04:24.108Z,15.95
2022-12-04T14:07:25.090Z,15.63
2022-12-04T14:10:27.521Z,16.05
2022-12-04T14:13:20.026Z,14.50
2022-12-04T14:16:15.445Z,14.35
2022-12-04T14:19:03.172Z,13.80
2022-12-04T14:21:48.490Z,14.65
2022-12-04T14:24:37.686Z,12.75
2022-12-04T14:27:36.610Z,12.88
2022-12-04T14:30:25.916Z,12.88
2022-12-04T14:33:19.691Z,13.05
2022-12-04T14:36:09.855Z,13.70
2022-12-04T14:39:20.961Z,14.85
2022-12-04T14:42:13.739Z,13.93
2022-12-04T14:45:00.995Z,14.70
2022-12-04T14:47:57.496Z,14.35
2022-12-04T14:50:53.186Z,14.82
2022-12-04T14:53:45.780Z,15.27
2022-12-04T14:56:53.251Z,16.58
2022-12-04T14:59:45.621Z,16.15
2022-12-04T15:02:35.054Z,15.15
2022-12-04T15:05:25.535Z,16.02
2022-12-04T15:08:14.275Z,15.73
2022-12-04T15:11:18.274Z,15.52
2022-12-04T15:14:11.772Z,15.90
2022-12-04T15:17:02.986Z,16.38
2022-12-04T15:19:49.705Z,16.48
2022-12-04T15:22:35.723Z,15.75
2022-12-04T15:25:26.350Z,16.30
2022-12-04T15:28:19.823Z,15.57
2022-12-04T15:31:14.102Z,16.15
2022-12-04T15:34:06.384Z,14.80
2022-12-04T15:36:56.833Z,15.50
2022-12-04T15:39:43.006Z,15.52
2022-12-04T15:42:31.430Z,15.90
2022-12-04T15:45:34.925Z,14.10
2022-12-04T15:48:25.521Z,14.68
2022-12-04T15:51:13.074Z,15.38
2022-12-04T15:54:02.157Z,15.00
2022-12-04T15:57:00.467Z,14.40
2022-12-04T15:59:52.065Z,14.32
2022-12-04T16:02:42.436Z,13.55
2022-12-04T16:05:37.563Z,13.18
2022-12-04T16:08:25.222Z,13.82
2022-12-04T16:11:33.854Z,13.98
2022-12-04T16:14:20.785Z,14.07
2022-12-04T16:17:11.155Z,14.77
2022-12-04T16:19:57.698Z,14.82
2022-12-04T16:22:47.426Z,15.43
2022-12-04T16:25:37.087Z,14.70
2022-12-04T16:28:23.660Z,14.00
2022-12-04T16:31:15.205Z,15.07
2022-12-04T16:34:02.605Z,15.15
2022-12-04T16:36:48.354Z,14.93
2022-12-04T16:39:38.303Z,15.30
2022-12-04T16:42:30.000Z,14.82
2022-12-04T16:45:23.289Z,14.98
2022-12-04T16:48:09.096Z,15.43
2022-12-04T16:50:59.345Z,14.85
2022-12-04T16:53:45.642Z,14.00
2022-12-04T16:56:31.404Z,13.55
2022-12-04T16:59:17.177Z,15.30
2022-12-04T17:02:05.101Z,13.75
2022-12-04T17:04:55.807Z,13.52
2022-12-04T17:07:44.869Z,14.13
2022-12-04T17:10:30.423Z,13.43
2022-12-04T17:13:17.981Z,14.88
2022-12-04T17:16:03.410Z,14.23
2022-12-04T17:18:50.076Z,14.35
2022-12-04T17:21:36.532Z,14.60
2022-12-04T17:24:24.063Z,12.93
2022-12-04T17:27:13.052Z,13.70
2022-12-04T17:30:00.566Z,13.88
2022-12-04T17:32:47.983Z,13.80
2022-12-04T17:35:33.754Z,14.05
2022-12-04T17:38:19.779Z,13.13
2022-12-04T17:41:11.172Z,13.60
2022-12-04T17:44:02.713Z,12.65
2022-12-04T17:46:48.413Z,12.35
2022-12-04T17:49:34.480Z,11.73
2022-12-04T17:52:22.409Z,11.88
2022-12-04T17:55:09.098Z,12.73
2022-12-04T17:57:56.885Z,13.15
2022-12-04T18:00:43.017Z,12.65
2022-12-04T18:03:29.036Z,12.90
2022-12-04T18:06:17.970Z,12.57
2022-12-04T18:09:04.479Z,12.32
2022-12-04T18:11:50.536Z,12.73
2022-12-04T18:14:39.051Z,12.25
2022-12-04T18:17:25.164Z,12.55
2022-12-04T18:20:11.715Z,12.38
2022-12-04T18:22:59.841Z,11.40
2022-12-04T18:25:55.196Z,11.48
2022-12-04T18:28:51.640Z,11.73
2022-12-04T18:31:39.297Z,12.73
2022-12-04T18:34:25.728Z,12.02
2022-12-04T18:37:11.595Z,11.90
2022-12-04T18:40:00.073Z,12.15
2022-12-04T18:42:49.590Z,12.18
2022-12-04T18:45:35.611Z,12.90
2022-12-04T18:48:23.192Z,12.57
2022-12-04T18:51:20.023Z,12.02
2022-12-04T18:54:08.196Z,13.25
2022-12-04T18:56:54.987Z,12.10
2022-12-04T18:59:41.097Z,13.18
2022-12-04T19:02:33.759Z,12.73
2022-12-04T19:08:33.735Z,10.90
2022-12-04T19:11:21.766Z,11.45
2022-12-04T19:14:17.685Z,11.48
2022-12-04T19:17:07.576Z,11.15
2022-12-04T19:19:53.903Z,10.90
2022-12-04T19:22:41.801Z,11.45
2022-12-04T19:25:27.989Z,10.85
2022-12-04T19:28:14.357Z,11.05
2022-12-04T19:31:01.825Z,10.85
2022-12-04T19:33:49.422Z,10.43
2022-12-04T19:36:36.001Z,10.18
2022-12-04T19:39:23.921Z,11.05
2022-12-04T19:42:10.734Z,10.82
2022-12-04T19:44:56.719Z,10.30
2022-12-04T19:47:42.698Z,10.93
2022-12-04T19:50:31.315Z,10.57
2022-12-04T19:53:21.382Z,10.70
2022-12-04T19:56:12.188Z,10.95
2022-12-04T19:59:04.646Z,10.75
2022-12-04T20:01:51.209Z,11.10
2022-12-04T20:04:38.655Z,11.88
2022-12-04T20:07:25.007Z,10.85
2022-12-04T20:10:11.357Z,11.82
2022-12-04T20:12:58.850Z,11.85
2022-12-04T20:15:45.056Z,11.50
2022-12-04T20:18:30.728Z,11.25
2022-12-04T20:21:16.426Z,11.60
2022-12-04T20:24:04.632Z,10.77
2022-12-04T20:26:50.756Z,10.73
2022-12-04T20:29:37.481Z,11.17
2022-12-04T20:32:23.387Z,10.63
2022-12-04T20:35:09.392Z,10.48
2022-12-04T20:37:55.334Z,10.57
2022-12-04T20:40:41.595Z,10.63
2022-12-04T20:43:28.401Z,10.57
2022-12-04T20:46:17.933Z,10.20
2022-12-04T20:49:10.020Z,9.52
2022-12-04T20:51:56.123Z,9.65
2022-12-04T20:54:42.250Z,10.40
2022-12-04T20:57:28.658Z,10.47
2022-12-04T21:00:17.076Z,10.13
2022-12-04T21:03:04.454Z,9.73
2022-12-04T21:05:50.070Z,10.68
2022-12-04T21:08:53.604Z,10.65
2022-12-04T21:11:41.912Z,10.32
2022-12-04T21:14:47.869Z,10.60
2022-12-04T21:17:33.288Z,10.57
2022-12-04T21:20:21.003Z,10.50
2022-12-04T21:23:06.686Z,9.80
2022-12-04T21:25:55.378Z,11.05
2022-12-04T21:28:40.938Z,10.30
2022-12-04T21:31:28.971Z,10.80
2022-12-04T21:34:17.575Z,11.07
2022-12-04T21:37:04.471Z,11.18
2022-12-04T21:39:49.957Z,11.60
2022-12-04T21:42:35.580Z,10.45
2022-12-04T21:45:21.173Z,10.60
2022-12-04T21:48:06.718Z,10.75
2022-12-04T21:50:52.205Z,10.55
2022-12-04T21:53:42.392Z,9.90
2022-12-04T21:56:28.172Z,10.55
2022-12-04T21:59:13.536Z,11.23
2022-12-04T22:01:59.046Z,10.77
2022-12-04T22:04:44.320Z,11.20
2022-12-04T22:07:29.692Z,11.05
2022-12-04T22:10:17.043Z,11.52
2022-12-04T22:13:02.441Z,12.38
2022-12-04T22:15:48.038Z,11.27
2022-12-04T22:18:34.558Z,10.70
2022-12-04T22:21:19.865Z,10.20
2022-12-04T22:24:06.345Z,10.75
2022-12-04T22:26:52.955Z,10.60
2022-12-04T22:29:53.542Z,9.85
2022-12-04T22:32:38.791Z,11.07
2022-12-04T22:35:24.065Z,10.52
2022-12-04T22:38:09.640Z,11.13
2022-12-04T22:40:55.242Z,10.60
2022-12-04T22:43:42.439Z,11.13
2022-12-04T22:46:27.749Z,11.23
2022-12-04T22:49:13.045Z,11.83
2022-12-04T22:51:58.508Z,10.70
2022-12-04T22:54:43.702Z,10.70
2022-12-04T22:57:29.190Z,11.40
2022-12-04T23:00:16.878Z,11.13
2022-12-04T23:03:02.272Z,11.00
2022-12-04T23:05:47.718Z,10.32
2022-12-04T23:08:33.195Z,10.70
2022-12-04T23:11:20.967Z,10.13
2022-12-04T23:14:08.292Z,9.60
2022-12-04T23:16:56.155Z,10.10
2022-12-04T23:19:41.784Z,9.18
2022-12-04T23:22:27.369Z,9.32
2022-12-04T23:25:12.879Z,8.73
2022-12-04T23:27:58.045Z,8.63
2022-12-04T23:30:46.979Z,9.27
2022-12-04T23:33:34.128Z,8.90
2022-12-04T23:36:19.366Z,8.15
2022-12-04T23:39:04.689Z,8.10
2022-12-04T23:41:50.818Z,8.93
2022-12-04T23:44:36.156Z,8.32
2022-12-04T23:47:21.715Z,8.15
2022-12-04T23:50:09.464Z,8.27
2022-12-04T23:52:55.073Z,8.10
2022-12-04T23:55:40.506Z,8.93
2022-12-04T23:58:26.490Z,8.77
